Hauptseite
METAR-TAF:

METAR-TAF

Flughäfen :

Flughafen Weeze

Weeze, Deutschland

Breite: 51-36-09N, Länge: 006-08-32E, Höhe: 32 m

Beobachtung

Neuester Wetterbericht von vor 32 Minuten, um 18:20 UTC
Wind 2 kt aus unterschiedlichen Richtungen
Temperatur 30°C
Luftfeuchtigkeit 29%
Luftdruck 1018 hPa
Sichtweite 10 km oder mehr
keine Wolken unter 1500 m und keine Kumulonimbus oder Gewitterwolken

METAR: EDLV 061820Z VRB02KT CAVOK 30/10 Q1018

Zeit: 20:52 (18:52 UTC)

Prognose

Neuester Wetterbericht von vor 1 Stunde und 52 Minuten, um 17:00 UTC
Gültige Prognose vom 06 um 18 UTC bis 07 um 18 UTC
Wind 2 kt aus unterschiedlichen Richtungen
Sichtweite 10 km oder mehr
keine Wolken unter 1500 m und keine Kumulonimbus oder Gewitterwolken
Zeitweise
vom 07 um 08 UTC bis 07 um 15 UTC
Wind 5 kt aus Ost

TAF: EDLV 061700Z 0618/0718 VRB02KT CAVOK TEMPO 0708/0715 10005KT

Wetterbeobachtungen und Prognosen von mehr als 4000 Flughäfen (METAR und TAF Bericht).

Die verfügbaren Stationen werden durch gelbe und rote Markierungen auf der Karte dargestellt.

Führen Sie die Maus auf sie, um den Namen der Station zu sehen.

Darauf klicken, um die Beobachtung von Wetterbeobachtungen und Prognosen zu sehen.

Um die Karte zu ändern : klicken Sie auf den grünen Tasten mit einem schwarzen Kreuz Zum Vergrößern, auf den grünen Button mit einem Gedankenstrich zu verkleinern, oder auf die grünen Pfeile für benachbarte Karten.


METAR-TAF: